createdAt,value
2019-02-14T00:00:20.598Z,1.75
2019-02-14T00:03:50.607Z,1.68
2019-02-14T00:07:20.626Z,1.6
2019-02-14T00:10:50.795Z,1.61
2019-02-14T00:14:20.853Z,1.65
2019-02-14T00:17:50.950Z,1.71
2019-02-14T00:21:20.942Z,1.8
2019-02-14T00:24:51.060Z,1.87
2019-02-14T00:28:21.029Z,1.87
2019-02-14T00:31:51.108Z,1.91
2019-02-14T00:35:25.177Z,1.98
2019-02-14T00:38:55.486Z,2.01
2019-02-14T00:42:25.546Z,2.04
2019-02-14T00:45:55.697Z,2.04
2019-02-14T00:49:25.887Z,2.01
2019-02-14T00:52:56.045Z,2.03
2019-02-14T00:56:26.161Z,1.94
2019-02-14T00:59:56.319Z,1.94
2019-02-14T01:03:27.378Z,1.96
2019-02-14T01:06:57.529Z,1.97
2019-02-14T01:10:27.576Z,1.95
2019-02-14T01:13:57.689Z,2
2019-02-14T01:17:27.724Z,2.03
2019-02-14T01:20:57.822Z,2.05
2019-02-14T01:24:28.023Z,2.1
2019-02-14T01:27:58.279Z,2.11
2019-02-14T01:31:28.309Z,2.07
2019-02-14T01:34:58.398Z,2.13
2019-02-14T01:38:28.376Z,2.11
2019-02-14T01:41:58.639Z,2.08
2019-02-14T01:45:28.917Z,2.06
2019-02-14T01:48:58.984Z,2.13
2019-02-14T01:52:29.217Z,2.26
2019-02-14T01:55:59.211Z,2.2
2019-02-14T01:59:29.170Z,2.31
2019-02-14T02:00:17.315Z,2.33
2019-02-14T02:03:48.421Z,2.38
2019-02-14T02:07:18.417Z,2.42
2019-02-14T02:10:48.496Z,2.31
2019-02-14T02:14:18.538Z,2.4
2019-02-14T02:17:48.794Z,2.42
2019-02-14T02:21:18.826Z,2.4
2019-02-14T02:24:48.862Z,2.42
2019-02-14T02:28:18.941Z,2.39
2019-02-14T02:31:48.999Z,2.38
2019-02-14T02:35:19.018Z,2.43
2019-02-14T02:38:49.037Z,2.33
2019-02-14T02:42:19.196Z,2.41
2019-02-14T02:45:49.225Z,2.33
2019-02-14T02:49:19.334Z,2.34
2019-02-14T02:52:49.336Z,2.27
2019-02-14T02:56:19.245Z,2.37
2019-02-14T02:59:49.301Z,2.37
2019-02-14T03:03:19.369Z,2.47
2019-02-14T03:06:50.380Z,2.46
2019-02-14T03:10:20.527Z,2.45
2019-02-14T03:13:50.514Z,2.48
2019-02-14T03:17:20.671Z,2.47
2019-02-14T03:20:50.775Z,2.43
2019-02-14T03:24:20.703Z,2.44
2019-02-14T03:27:50.783Z,2.38
2019-02-14T03:31:20.774Z,2.45
2019-02-14T03:34:50.939Z,2.39
2019-02-14T03:38:20.918Z,2.41
2019-02-14T03:41:51.057Z,2.37
2019-02-14T03:45:21.167Z,2.42
2019-02-14T03:48:51.395Z,2.44
2019-02-14T03:52:21.373Z,2.44
2019-02-14T03:55:51.462Z,2.45
2019-02-14T03:59:21.481Z,2.43
2019-02-14T04:00:16.163Z,2.52
2019-02-14T04:03:46.290Z,2.48
2019-02-14T04:07:17.318Z,2.36
2019-02-14T04:10:47.401Z,2.35
2019-02-14T04:14:17.426Z,2.31
2019-02-14T04:17:47.525Z,2.28
2019-02-14T04:21:17.644Z,2.17
2019-02-14T04:24:47.793Z,2.12
2019-02-14T04:28:17.933Z,2.07
2019-02-14T04:31:48.021Z,2.09
2019-02-14T04:35:18.120Z,2.08
2019-02-14T04:38:48.239Z,2.14
2019-02-14T04:42:18.361Z,2.21
2019-02-14T04:45:48.356Z,2.2
2019-02-14T04:49:18.475Z,2.28
2019-02-14T04:52:48.594Z,2.25
2019-02-14T04:56:18.700Z,2.42
2019-02-14T04:59:48.843Z,2.35
2019-02-14T05:03:18.851Z,2.35
2019-02-14T05:06:48.970Z,2.28
2019-02-14T05:10:20.018Z,2.25
2019-02-14T05:13:50.048Z,1.94
2019-02-14T05:17:20.226Z,1.63
2019-02-14T05:20:50.418Z,1.42
2019-02-14T05:24:20.498Z,1.32
2019-02-14T05:27:50.563Z,1.26
2019-02-14T05:31:20.532Z,1.21
2019-02-14T05:34:50.690Z,1.33
2019-02-14T05:38:20.760Z,1.45
2019-02-14T05:41:50.889Z,1.55
2019-02-14T05:45:20.827Z,1.63
2019-02-14T05:48:51.074Z,1.68
2019-02-14T05:52:21.215Z,1.78
2019-02-14T05:55:51.253Z,1.93
2019-02-14T05:59:21.322Z,1.94
2019-02-14T06:00:17.136Z,1.98
2019-02-14T06:03:47.322Z,2.03
2019-02-14T06:07:17.334Z,2.1
2019-02-14T06:10:47.541Z,2.16
2019-02-14T06:14:17.557Z,2.28
2019-02-14T06:17:47.583Z,2.31
2019-02-14T06:21:17.536Z,2.35
2019-02-14T06:24:47.527Z,2.41
2019-02-14T06:28:17.543Z,2.54
2019-02-14T06:31:47.752Z,2.57
2019-02-14T06:35:17.811Z,2.67
2019-02-14T06:38:47.920Z,2.73
2019-02-14T06:42:17.949Z,2.76
2019-02-14T06:45:48.179Z,2.82
2019-02-14T06:49:18.197Z,2.89
2019-02-14T06:52:48.215Z,2.83
2019-02-14T06:56:18.204Z,2.91
2019-02-14T06:59:48.463Z,2.91
2019-02-14T07:03:18.503Z,3.06
2019-02-14T07:06:48.501Z,3.18
2019-02-14T07:10:18.520Z,3.28
2019-02-14T07:13:49.529Z,3.42
2019-02-14T07:17:19.579Z,3.54
2019-02-14T07:20:49.709Z,3.73
2019-02-14T07:24:19.756Z,4.02
2019-02-14T07:27:49.865Z,4.29
2019-02-14T07:31:20.154Z,4.4
2019-02-14T07:34:50.273Z,4.43
2019-02-14T07:38:20.322Z,4.5
2019-02-14T07:41:50.432Z,4.6
2019-02-14T07:45:20.432Z,4.74
2019-02-14T07:48:50.439Z,4.83
2019-02-14T07:52:25.169Z,4.86
2019-02-14T07:55:55.517Z,4.96
2019-02-14T07:59:25.676Z,4.96
2019-02-14T08:00:15.636Z,5.01
2019-02-14T08:03:45.695Z,5.1
2019-02-14T08:07:15.694Z,5.27
2019-02-14T08:10:45.813Z,5.39
2019-02-14T08:14:16.022Z,5.44
2019-02-14T08:17:46.161Z,5.5
2019-02-14T08:21:16.160Z,5.56
2019-02-14T08:24:46.259Z,5.68
2019-02-14T08:28:16.288Z,5.86
2019-02-14T08:31:46.447Z,6.18
2019-02-14T08:35:16.449Z,6.24
2019-02-14T08:38:46.447Z,6.34
2019-02-14T08:42:16.465Z,6.62
2019-02-14T08:45:46.512Z,6.61
2019-02-14T08:49:16.653Z,6.81
2019-02-14T08:52:46.744Z,6.4
2019-02-14T08:56:16.911Z,6.16
2019-02-14T08:59:47.019Z,6
2019-02-14T09:03:17.043Z,5.83
2019-02-14T09:06:47.178Z,6
2019-02-14T09:10:17.317Z,6.27
2019-02-14T09:13:47.436Z,6.42
2019-02-14T09:17:17.631Z,6.49
2019-02-14T09:20:47.774Z,6.53
2019-02-14T09:24:17.795Z,6.25
2019-02-14T09:27:47.946Z,6.26
2019-02-14T09:31:19.530Z,6.7
2019-02-14T09:34:49.721Z,6.82
2019-02-14T09:38:19.679Z,6.95
2019-02-14T09:41:49.829Z,6.73
2019-02-14T09:45:19.898Z,7.25
2019-02-14T09:48:50.047Z,7.64
2019-02-14T09:52:20.116Z,6.82
2019-02-14T09:55:50.246Z,7.04
2019-02-14T09:59:20.287Z,7.39
2019-02-14T10:00:15.756Z,7.37
2019-02-14T10:03:47.028Z,6.89
2019-02-14T10:07:17.203Z,6.87
2019-02-14T10:10:47.423Z,7.34
2019-02-14T10:14:17.561Z,7.52
2019-02-14T10:17:48.600Z,7.91
2019-02-14T10:21:18.709Z,7.69
2019-02-14T10:24:48.899Z,7.63
2019-02-14T10:28:19.068Z,7.36
2019-02-14T10:31:49.217Z,7.38
2019-02-14T10:35:19.296Z,7.32
2019-02-14T10:38:49.315Z,7.37
2019-02-14T10:42:19.394Z,7.41
2019-02-14T10:45:49.404Z,7.37
2019-02-14T10:49:19.533Z,7.4
2019-02-14T10:52:49.554Z,7.76
2019-02-14T10:56:19.691Z,7.59
2019-02-14T10:59:49.711Z,7.24
2019-02-14T11:03:19.809Z,7.65
2019-02-14T11:06:49.954Z,7.7
2019-02-14T11:10:20.057Z,7.28
2019-02-14T11:13:50.168Z,7.41
2019-02-14T11:17:20.240Z,7.43
2019-02-14T11:20:51.345Z,7.28
2019-02-14T11:24:21.323Z,7.14
2019-02-14T11:27:51.433Z,7.23
2019-02-14T11:31:21.402Z,7.33
2019-02-14T11:34:51.442Z,7.37
2019-02-14T11:38:21.621Z,7.55
2019-02-14T11:41:51.750Z,7.43
2019-02-14T11:45:22.049Z,7.27
2019-02-14T11:48:52.002Z,6.84
2019-02-14T11:52:22.148Z,6.81
2019-02-14T11:55:52.236Z,6.66
2019-02-14T11:59:22.326Z,6.53
2019-02-14T12:00:20.895Z,6.63
2019-02-14T12:03:51.064Z,6.44
2019-02-14T12:07:21.237Z,6.36
2019-02-14T12:10:51.353Z,6.25
2019-02-14T12:14:21.402Z,6.21
2019-02-14T12:17:51.471Z,6.12
2019-02-14T12:21:21.790Z,6.07
2019-02-14T12:24:51.850Z,6.14
2019-02-14T12:28:21.918Z,6.07
2019-02-14T12:31:51.987Z,6.03
2019-02-14T12:35:22.278Z,5.94
2019-02-14T12:38:52.370Z,6.05
2019-02-14T12:42:22.380Z,6.1
2019-02-14T12:45:52.423Z,6.29
2019-02-14T12:49:22.403Z,6.06
2019-02-14T12:52:52.503Z,6
2019-02-14T12:56:22.570Z,6
2019-02-14T12:59:52.682Z,6.17
2019-02-14T13:03:22.694Z,5.99
2019-02-14T13:06:52.867Z,5.93
2019-02-14T13:10:22.857Z,5.88
2019-02-14T13:13:52.969Z,5.86
2019-02-14T13:17:23.138Z,5.87
2019-02-14T13:20:53.224Z,6.01
2019-02-14T13:24:24.313Z,5.9
2019-02-14T13:27:54.532Z,5.98
2019-02-14T13:31:31.671Z,5.96
2019-02-14T13:35:03.094Z,5.81
2019-02-14T13:38:33.400Z,5.79
2019-02-14T13:42:03.627Z,5.75
2019-02-14T13:45:33.806Z,5.8
2019-02-14T13:49:05.871Z,5.73
2019-02-14T13:52:36.237Z,5.76
2019-02-14T13:56:06.503Z,5.77
2019-02-14T13:59:36.544Z,5.76
2019-02-14T14:00:20.092Z,5.64
2019-02-14T14:03:50.201Z,5.39
2019-02-14T14:07:20.351Z,5.51
2019-02-14T14:10:50.530Z,5.36
2019-02-14T14:14:20.651Z,5.49
2019-02-14T14:17:50.797Z,5.28
2019-02-14T14:21:20.853Z,5.21
2019-02-14T14:24:51.923Z,5.28
2019-02-14T14:28:22.263Z,5.16
2019-02-14T14:31:52.413Z,5.14
2019-02-14T14:35:22.617Z,5.15
2019-02-14T14:38:52.714Z,5.06
2019-02-14T14:43:47.884Z,4.59
2019-02-14T14:47:20.233Z,4.23
2019-02-14T14:50:50.324Z,3.9
2019-02-14T14:54:20.463Z,3.73
2019-02-14T14:57:50.604Z,3.73
2019-02-14T15:01:20.653Z,3.66
2019-02-14T15:04:50.741Z,3.64
2019-02-14T15:08:20.921Z,3.7
2019-02-14T15:11:51.011Z,3.76
2019-02-14T15:15:21.221Z,3.74
2019-02-14T15:18:51.278Z,3.62
2019-02-14T15:22:21.343Z,3.43
2019-02-14T15:25:52.350Z,3.38
2019-02-14T15:29:22.501Z,3.22
2019-02-14T15:32:52.580Z,3.09
2019-02-14T15:36:24.211Z,3.02
2019-02-14T15:39:56.644Z,3.08
2019-02-14T15:43:26.842Z,2.97
2019-02-14T15:46:56.887Z,2.84
2019-02-14T15:50:27.953Z,2.85
2019-02-14T15:53:59.640Z,2.93
2019-02-14T15:57:29.658Z,2.89
2019-02-14T16:00:16.888Z,2.91
2019-02-14T16:03:46.989Z,2.88
2019-02-14T16:07:17.641Z,2.89
2019-02-14T16:10:50.129Z,3.05
2019-02-14T16:14:23.107Z,3.08
2019-02-14T16:17:53.177Z,3.03
2019-02-14T16:21:23.367Z,3.11
2019-02-14T16:24:53.590Z,3.16
2019-02-14T16:28:24.737Z,3.24
2019-02-14T16:31:54.848Z,3.25
2019-02-14T16:35:24.997Z,3.25
2019-02-14T16:38:56.429Z,3.31
2019-02-14T16:42:28.425Z,3.34
2019-02-14T16:45:58.538Z,3.46
2019-02-14T16:49:28.558Z,3.52
2019-02-14T16:52:58.675Z,3.49
2019-02-14T16:56:28.886Z,3.49
2019-02-14T16:59:59.015Z,3.47
2019-02-14T17:03:29.329Z,3.63
2019-02-14T17:06:59.504Z,3.7
2019-02-14T17:10:36.603Z,3.67
2019-02-14T17:14:07.454Z,3.8
2019-02-14T17:17:37.534Z,3.83
2019-02-14T17:21:07.708Z,3.86
2019-02-14T17:24:37.834Z,3.83
2019-02-14T17:28:08.083Z,3.97
2019-02-14T17:31:39.053Z,4.01
2019-02-14T17:35:09.254Z,4.04
2019-02-14T17:38:39.353Z,4.08
2019-02-14T17:42:09.553Z,4.05
2019-02-14T17:45:39.570Z,4.09
2019-02-14T17:49:09.692Z,4.16
2019-02-14T17:52:39.753Z,4.07
2019-02-14T17:56:09.952Z,4.26
2019-02-14T17:59:40.072Z,4.2
2019-02-14T18:00:16.042Z,4.24
2019-02-14T18:03:46.211Z,4.31
2019-02-14T18:07:16.222Z,4.31
2019-02-14T18:10:54.551Z,4.32
2019-02-14T18:14:25.041Z,4.21
2019-02-14T18:17:55.222Z,4.33
2019-02-14T18:21:25.266Z,4.35
2019-02-14T18:24:55.400Z,4.2
2019-02-14T18:28:25.540Z,4.26
2019-02-14T18:31:56.602Z,4.19
2019-02-14T18:35:26.800Z,4.31
2019-02-14T18:38:56.950Z,4.23
2019-02-14T18:42:27.090Z,4.26
2019-02-14T18:45:57.319Z,4.27
2019-02-14T18:49:27.429Z,4.17
2019-02-14T18:52:57.519Z,4.17
2019-02-14T18:56:27.557Z,4.19
2019-02-14T18:59:57.701Z,4.26
2019-02-14T19:03:27.938Z,4.12
2019-02-14T19:06:58.276Z,4.17
2019-02-14T19:10:28.420Z,4.17
2019-02-14T19:13:58.533Z,4.1
2019-02-14T19:17:28.647Z,4.13
2019-02-14T19:20:58.800Z,4.04
2019-02-14T19:24:28.845Z,4.08
2019-02-14T19:27:58.918Z,4.06
2019-02-14T19:31:29.011Z,4.09
2019-02-14T19:35:00.065Z,4.09
2019-02-14T19:38:30.322Z,4.07
2019-02-14T19:42:00.506Z,4.13
2019-02-14T19:45:36.594Z,4.03
2019-02-14T19:49:06.952Z,4.07
2019-02-14T19:52:37.003Z,4.02
2019-02-14T19:56:07.196Z,3.95
2019-02-14T19:59:37.261Z,3.95
2019-02-14T20:00:16.211Z,4.01
2019-02-14T20:03:46.200Z,4.09
2019-02-14T20:07:16.222Z,3.91
2019-02-14T20:10:46.319Z,4.03
2019-02-14T20:14:16.322Z,4.02
2019-02-14T20:17:46.494Z,3.95
2019-02-14T20:21:16.517Z,4.01
2019-02-14T20:24:46.606Z,4.1
2019-02-14T20:28:16.835Z,3.99
2019-02-14T20:31:46.995Z,4.13
2019-02-14T20:35:18.184Z,4.02
2019-02-14T20:38:48.233Z,3.99
2019-02-14T20:42:18.468Z,3.97
2019-02-14T20:45:48.672Z,3.96
2019-02-14T20:49:19.013Z,3.95
2019-02-14T20:52:49.191Z,3.92
2019-02-14T20:56:19.343Z,3.88
2019-02-14T20:59:49.450Z,3.87
2019-02-14T21:03:19.549Z,3.92
2019-02-14T21:06:49.768Z,3.98
2019-02-14T21:10:19.887Z,3.88
2019-02-14T21:13:50.017Z,3.85
2019-02-14T21:17:19.962Z,3.73
2019-02-14T21:20:50.168Z,3.75
2019-02-14T21:24:20.265Z,3.77
2019-02-14T21:27:50.364Z,3.67
2019-02-14T21:31:20.442Z,3.71
2019-02-14T21:34:50.529Z,3.71
2019-02-14T21:38:20.789Z,3.7
2019-02-14T21:41:50.874Z,3.74
2019-02-14T21:45:20.974Z,3.67
2019-02-14T21:48:51.106Z,3.83
2019-02-14T21:52:21.083Z,3.95
2019-02-14T21:55:51.207Z,3.96
2019-02-14T21:59:21.400Z,4.06
2019-02-14T22:00:17.652Z,4.01
2019-02-14T22:03:47.825Z,3.96
2019-02-14T22:07:17.987Z,4.02
2019-02-14T22:10:48.103Z,3.82
2019-02-14T22:14:18.167Z,3.69
2019-02-14T22:17:48.368Z,3.69
2019-02-14T22:21:18.494Z,3.77
2019-02-14T22:24:48.545Z,3.8
2019-02-14T22:28:18.688Z,3.83
2019-02-14T22:31:48.828Z,3.83
2019-02-14T22:35:18.980Z,3.88
2019-02-14T22:38:50.153Z,3.83
2019-02-14T22:42:20.254Z,3.81
2019-02-14T22:45:50.426Z,3.67
2019-02-14T22:49:20.567Z,3.87
2019-02-14T22:52:50.825Z,3.9
2019-02-14T22:56:20.951Z,3.95
2019-02-14T22:59:51.113Z,3.92
2019-02-14T23:03:21.254Z,3.98
2019-02-14T23:06:51.356Z,3.96
2019-02-14T23:10:21.482Z,4.02
2019-02-14T23:13:51.641Z,3.97
2019-02-14T23:17:21.712Z,3.87
2019-02-14T23:20:51.792Z,3.87
2019-02-14T23:24:21.776Z,3.86
2019-02-14T23:27:51.868Z,3.77
2019-02-14T23:31:21.960Z,3.91
2019-02-14T23:34:52.092Z,3.87
2019-02-14T23:38:22.044Z,3.76
2019-02-14T23:41:53.099Z,3.71
2019-02-14T23:45:23.130Z,3.64
2019-02-14T23:48:53.284Z,3.67
2019-02-14T23:52:23.301Z,3.7
2019-02-14T23:55:53.412Z,3.71
2019-02-14T23:59:23.526Z,3.6
